createdAt,value
2023-05-03T00:00:49.164Z,8.90
2023-05-03T00:03:17.280Z,8.70
2023-05-03T00:05:45.496Z,8.70
2023-05-03T00:08:13.377Z,9.30
2023-05-03T00:10:41.137Z,8.70
2023-05-03T00:13:08.905Z,8.70
2023-05-03T00:15:36.839Z,8.90
2023-05-03T00:20:52.637Z,8.90
2023-05-03T00:23:20.735Z,8.80
2023-05-03T00:25:53.231Z,8.70
2023-05-03T00:28:21.371Z,8.70
2023-05-03T00:30:49.681Z,8.70
2023-05-03T00:33:17.744Z,8.40
2023-05-03T00:35:46.125Z,8.60
2023-05-03T00:38:14.673Z,8.70
2023-05-03T00:40:42.591Z,8.50
2023-05-03T00:43:12.934Z,8.50
2023-05-03T00:48:30.365Z,8.50
2023-05-03T00:51:02.359Z,8.40
2023-05-03T00:53:31.196Z,8.40
2023-05-03T00:56:00.680Z,8.00
2023-05-03T00:58:28.517Z,8.50
2023-05-03T01:00:56.851Z,8.50
2023-05-03T01:03:24.905Z,8.40
2023-05-03T01:06:00.533Z,8.40
2023-05-03T01:08:33.579Z,8.50
2023-05-03T01:11:07.084Z,8.30
2023-05-03T01:13:43.977Z,8.10
2023-05-03T01:16:20.811Z,8.30
2023-05-03T01:21:38.334Z,8.20
2023-05-03T01:24:13.536Z,8.20
2023-05-03T01:26:41.278Z,8.20
2023-05-03T01:29:09.041Z,8.50
2023-05-03T01:31:43.898Z,8.30
2023-05-03T01:34:22.575Z,8.20
2023-05-03T01:36:53.123Z,8.30
2023-05-03T01:39:28.871Z,8.10
2023-05-03T01:41:58.829Z,8.20
2023-05-03T01:44:27.708Z,8.20
2023-05-03T01:46:56.671Z,8.20
2023-05-03T01:49:24.451Z,8.30
2023-05-03T01:51:52.372Z,8.20
2023-05-03T01:54:21.417Z,8.20
2023-05-03T01:56:49.330Z,8.10
2023-05-03T01:59:17.226Z,8.10
2023-05-03T02:01:45.258Z,7.70
2023-05-03T02:06:59.587Z,7.80
2023-05-03T02:09:27.287Z,7.90
2023-05-03T02:11:55.072Z,7.70
2023-05-03T02:14:22.853Z,7.80
2023-05-03T02:16:50.981Z,7.70
2023-05-03T02:19:18.907Z,7.70
2023-05-03T02:21:46.645Z,7.00
2023-05-03T02:24:19.807Z,7.90
2023-05-03T02:26:47.533Z,7.80
2023-05-03T02:29:15.323Z,7.80
2023-05-03T02:31:43.006Z,7.70
2023-05-03T02:34:11.193Z,7.70
2023-05-03T02:36:38.949Z,7.60
2023-05-03T02:39:06.738Z,7.60
2023-05-03T02:41:34.504Z,7.30
2023-05-03T02:44:02.239Z,7.30
2023-05-03T02:46:30.337Z,7.40
2023-05-03T02:48:58.264Z,7.40
2023-05-03T02:51:26.769Z,7.40
2023-05-03T02:53:54.610Z,7.30
2023-05-03T02:56:25.347Z,7.30
2023-05-03T02:58:53.750Z,7.30
2023-05-03T03:01:21.841Z,7.30
2023-05-03T03:06:17.661Z,7.30
2023-05-03T03:08:45.417Z,7.40
2023-05-03T03:11:13.717Z,7.30
2023-05-03T03:13:41.479Z,7.30
2023-05-03T03:18:57.473Z,7.50
2023-05-03T03:21:26.035Z,7.50
2023-05-03T03:23:53.810Z,7.50
2023-05-03T03:26:21.626Z,7.50
2023-05-03T03:28:49.407Z,7.50
2023-05-03T03:31:17.765Z,7.60
2023-05-03T03:33:45.590Z,7.50
2023-05-03T03:36:13.362Z,7.50
2023-05-03T03:38:41.212Z,7.70
2023-05-03T03:41:09.230Z,7.30
2023-05-03T03:43:37.001Z,7.30
2023-05-03T03:46:05.881Z,7.40
2023-05-03T03:48:33.924Z,7.40
2023-05-03T03:51:01.689Z,7.20
2023-05-03T03:53:29.460Z,7.10
2023-05-03T03:55:57.195Z,7.20
2023-05-03T03:58:25.064Z,7.10
2023-05-03T04:00:52.845Z,7.10
2023-05-03T04:03:20.648Z,7.20
2023-05-03T04:05:49.910Z,7.20
2023-05-03T04:08:17.671Z,7.20
2023-05-03T04:10:45.700Z,7.30
2023-05-03T04:13:13.460Z,7.10
2023-05-03T04:15:41.589Z,7.00
2023-05-03T04:18:09.342Z,6.90
2023-05-03T04:20:37.613Z,6.80
2023-05-03T04:23:05.404Z,7.00
2023-05-03T04:25:33.557Z,6.90
2023-05-03T04:28:01.672Z,6.90
2023-05-03T04:30:29.678Z,7.00
2023-05-03T04:32:59.214Z,6.70
2023-05-03T04:35:28.128Z,6.80
2023-05-03T04:37:56.290Z,6.80
2023-05-03T04:40:24.033Z,6.50
2023-05-03T04:42:51.747Z,6.80
2023-05-03T04:45:20.307Z,6.80
2023-05-03T04:47:48.743Z,6.80
2023-05-03T04:50:17.073Z,6.90
2023-05-03T04:52:46.309Z,6.90
2023-05-03T04:57:59.333Z,7.10
2023-05-03T05:00:27.213Z,7.00
2023-05-03T05:02:56.216Z,7.10
2023-05-03T05:05:24.329Z,7.10
2023-05-03T05:07:52.754Z,7.00
2023-05-03T05:10:20.773Z,7.50
2023-05-03T05:12:48.548Z,7.00
2023-05-03T05:15:17.245Z,7.20
2023-05-03T05:17:45.098Z,7.10
2023-05-03T05:20:13.310Z,7.10
2023-05-03T05:22:41.614Z,7.20
2023-05-03T05:25:10.218Z,7.40
2023-05-03T05:27:38.016Z,7.40
2023-05-03T05:30:08.474Z,7.50
2023-05-03T05:32:36.341Z,7.60
2023-05-03T05:35:05.786Z,7.70
2023-05-03T05:37:33.619Z,7.70
2023-05-03T05:40:01.691Z,7.50
2023-05-03T05:42:29.778Z,7.50
2023-05-03T05:44:57.522Z,7.50
2023-05-03T05:47:25.473Z,7.60
2023-05-03T05:49:53.554Z,7.90
2023-05-03T05:52:21.632Z,7.80
2023-05-03T05:54:49.415Z,7.80
2023-05-03T05:57:18.033Z,7.80
2023-05-03T05:59:45.832Z,8.00
2023-05-03T06:02:16.300Z,8.00
2023-05-03T06:04:44.700Z,7.90
2023-05-03T06:07:12.560Z,8.20
2023-05-03T06:09:40.301Z,8.20
2023-05-03T06:12:09.701Z,8.30
2023-05-03T06:14:38.669Z,8.30
2023-05-03T06:17:08.715Z,8.40
2023-05-03T06:19:36.501Z,8.40
2023-05-03T06:22:05.974Z,8.40
2023-05-03T06:24:33.828Z,8.20
2023-05-03T06:27:02.111Z,8.80
2023-05-03T06:29:30.024Z,8.70
2023-05-03T06:31:57.765Z,8.50
2023-05-03T06:34:26.130Z,8.60
2023-05-03T06:36:54.576Z,8.80
2023-05-03T06:39:22.472Z,8.80
2023-05-03T06:41:50.932Z,8.80
2023-05-03T06:44:18.708Z,8.90
2023-05-03T06:46:46.508Z,8.60
2023-05-03T06:49:16.096Z,9.00
2023-05-03T06:51:44.752Z,9.10
2023-05-03T06:54:13.293Z,9.10
2023-05-03T06:56:41.567Z,9.10
2023-05-03T06:59:10.549Z,9.10
2023-05-03T07:01:39.329Z,9.20
2023-05-03T07:04:08.149Z,9.00
2023-05-03T07:06:48.292Z,9.20
2023-05-03T07:09:35.321Z,9.20
2023-05-03T07:12:09.675Z,9.30
2023-05-03T07:17:24.133Z,9.40
2023-05-03T07:19:52.938Z,9.50
2023-05-03T07:22:24.062Z,9.50
2023-05-03T07:24:53.836Z,9.50
2023-05-03T07:27:22.009Z,9.50
2023-05-03T07:29:49.983Z,9.60
2023-05-03T07:32:17.937Z,9.60
2023-05-03T07:34:45.761Z,9.60
2023-05-03T07:37:13.748Z,9.60
2023-05-03T07:39:42.112Z,9.70
2023-05-03T07:42:10.040Z,10.20
2023-05-03T07:44:38.056Z,9.80
2023-05-03T07:47:05.875Z,9.70
2023-05-03T07:49:35.709Z,9.90
2023-05-03T07:52:03.784Z,10.00
2023-05-03T07:54:31.816Z,10.00
2023-05-03T07:57:00.157Z,9.90
2023-05-03T07:59:27.962Z,10.00
2023-05-03T08:01:55.815Z,10.00
2023-05-03T08:04:24.282Z,10.00
2023-05-03T08:06:52.473Z,10.00
2023-05-03T08:09:20.498Z,10.30
2023-05-03T08:11:48.351Z,9.90
2023-05-03T08:14:16.271Z,10.30
2023-05-03T08:16:44.102Z,10.30
2023-05-03T08:19:11.896Z,10.50
2023-05-03T08:21:39.863Z,10.40
2023-05-03T08:24:08.368Z,10.60
2023-05-03T08:26:36.990Z,10.40
2023-05-03T08:31:52.102Z,10.50
2023-05-03T08:34:20.688Z,10.50
2023-05-03T08:36:48.555Z,10.30
2023-05-03T08:39:16.555Z,10.30
2023-05-03T08:41:44.565Z,10.30
2023-05-03T08:44:17.050Z,10.50
2023-05-03T08:46:45.002Z,10.40
2023-05-03T08:49:13.331Z,10.60
2023-05-03T08:51:42.383Z,10.70
2023-05-03T08:54:10.145Z,10.70
2023-05-03T08:56:41.842Z,10.70
2023-05-03T08:59:12.042Z,10.70
2023-05-03T09:01:41.020Z,11.00
2023-05-03T09:04:09.967Z,10.70
2023-05-03T09:06:38.225Z,10.70
2023-05-03T09:09:07.827Z,10.90
2023-05-03T09:11:37.459Z,10.90
2023-05-03T09:14:13.472Z,10.80
2023-05-03T09:16:43.681Z,11.00
2023-05-03T09:19:12.357Z,10.90
2023-05-03T09:21:41.649Z,11.00
2023-05-03T09:24:14.503Z,11.10
2023-05-03T09:26:42.794Z,11.00
2023-05-03T09:29:10.867Z,11.00
2023-05-03T09:31:57.999Z,11.10
2023-05-03T09:34:26.245Z,11.10
2023-05-03T09:36:54.429Z,11.20
2023-05-03T09:39:22.101Z,11.20
2023-05-03T09:41:49.964Z,11.30
2023-05-03T09:44:18.378Z,11.30
2023-05-03T09:47:03.808Z,11.30
2023-05-03T09:49:32.574Z,11.70
2023-05-03T09:52:01.107Z,11.40
2023-05-03T09:54:30.696Z,11.50
2023-05-03T09:57:00.057Z,11.50
2023-05-03T09:59:27.834Z,11.80
2023-05-03T10:01:59.133Z,11.50
2023-05-03T10:04:28.436Z,11.60
2023-05-03T10:07:00.659Z,11.50
2023-05-03T10:09:36.616Z,11.70
2023-05-03T10:12:08.179Z,11.90
2023-05-03T10:14:36.165Z,11.90
2023-05-03T10:17:08.333Z,11.80
2023-05-03T10:19:40.026Z,11.90
2023-05-03T10:22:09.336Z,12.10
2023-05-03T10:24:38.101Z,12.00
2023-05-03T10:27:11.611Z,11.80
2023-05-03T10:29:55.833Z,12.10
2023-05-03T10:32:32.017Z,11.90
2023-05-03T10:35:03.649Z,12.10
2023-05-03T10:37:34.280Z,12.10
2023-05-03T10:40:11.618Z,12.10
2023-05-03T10:42:43.321Z,12.10
2023-05-03T10:45:23.923Z,12.20
2023-05-03T10:48:19.787Z,12.20
2023-05-03T10:50:48.393Z,12.30
2023-05-03T10:53:36.935Z,12.30
2023-05-03T10:56:07.695Z,12.40
2023-05-03T10:58:37.868Z,12.60
2023-05-03T11:01:08.780Z,12.30
2023-05-03T11:03:46.362Z,12.50
2023-05-03T11:06:30.676Z,12.40
2023-05-03T11:08:59.083Z,12.50
2023-05-03T11:11:26.883Z,12.50
2023-05-03T11:13:55.772Z,12.60
2023-05-03T11:16:24.737Z,12.40
2023-05-03T11:18:53.653Z,12.70
2023-05-03T11:21:22.312Z,12.80
2023-05-03T11:23:50.261Z,12.80
2023-05-03T11:26:20.512Z,12.80
2023-05-03T11:28:49.156Z,12.70
2023-05-03T11:31:17.229Z,12.80
2023-05-03T11:33:46.593Z,12.90
2023-05-03T11:36:16.264Z,12.80
2023-05-03T11:41:32.076Z,13.10
2023-05-03T11:44:12.186Z,12.80
2023-05-03T11:46:48.589Z,13.00
2023-05-03T11:49:19.153Z,13.00
2023-05-03T11:51:50.734Z,13.00
2023-05-03T11:54:26.417Z,13.10
2023-05-03T11:56:58.335Z,13.10
2023-05-03T12:02:26.776Z,13.50
2023-05-03T12:04:57.937Z,13.50
2023-05-03T12:07:26.941Z,13.60
2023-05-03T12:10:07.027Z,13.50
2023-05-03T12:12:53.598Z,13.70
2023-05-03T12:15:33.725Z,13.60
2023-05-03T12:18:04.583Z,13.70
2023-05-03T12:21:28.344Z,13.80
2023-05-03T12:23:57.899Z,14.30
2023-05-03T12:26:26.729Z,14.20
2023-05-03T12:28:56.730Z,14.30
2023-05-03T12:31:25.166Z,14.40
2023-05-03T12:34:22.905Z,14.70
2023-05-03T12:37:04.394Z,14.80
2023-05-03T12:39:34.144Z,14.40
2023-05-03T12:42:06.949Z,14.50
2023-05-03T12:44:35.974Z,14.30
2023-05-03T12:47:04.771Z,14.40
2023-05-03T12:52:37.560Z,14.50
2023-05-03T12:55:11.244Z,14.50
2023-05-03T12:57:39.764Z,14.50
2023-05-03T13:00:15.493Z,14.60
2023-05-03T13:05:35.717Z,14.70
2023-05-03T13:08:09.736Z,14.60
2023-05-03T13:10:40.464Z,14.60
2023-05-03T13:13:08.871Z,14.70
2023-05-03T13:15:37.308Z,14.60
2023-05-03T13:18:07.629Z,14.70
2023-05-03T13:20:36.697Z,14.90
2023-05-03T13:23:04.923Z,15.00
2023-05-03T13:25:33.321Z,15.30
2023-05-03T13:28:02.072Z,15.10
2023-05-03T13:30:29.978Z,15.20
2023-05-03T13:32:57.794Z,15.40
2023-05-03T13:35:25.872Z,15.50
2023-05-03T13:37:54.427Z,15.60
2023-05-03T13:43:10.562Z,15.60
2023-05-03T13:45:38.618Z,15.70
2023-05-03T13:48:18.357Z,15.70
2023-05-03T13:50:47.088Z,15.70
2023-05-03T13:53:14.939Z,15.60
2023-05-03T13:55:42.698Z,15.70
2023-05-03T13:58:11.225Z,15.60
2023-05-03T14:00:40.069Z,15.60
2023-05-03T14:03:08.256Z,15.50
2023-05-03T14:05:36.374Z,15.20
2023-05-03T14:08:05.309Z,15.50
2023-05-03T14:10:36.130Z,15.40
2023-05-03T14:13:04.084Z,15.40
2023-05-03T14:15:32.319Z,15.40
2023-05-03T14:20:49.956Z,15.20
2023-05-03T14:23:19.467Z,15.20
2023-05-03T14:25:48.029Z,15.10
2023-05-03T14:28:16.783Z,15.20
2023-05-03T14:30:44.802Z,15.20
2023-05-03T14:33:12.873Z,15.30
2023-05-03T14:35:42.054Z,15.30
2023-05-03T14:38:10.103Z,15.40
2023-05-03T14:40:38.248Z,15.40
2023-05-03T14:43:07.168Z,15.40
2023-05-03T14:45:35.475Z,15.50
2023-05-03T14:48:03.814Z,15.50
2023-05-03T14:50:31.734Z,15.50
2023-05-03T14:52:59.608Z,15.60
2023-05-03T14:55:27.461Z,15.60
2023-05-03T14:57:55.729Z,15.70
2023-05-03T15:00:25.153Z,15.70
2023-05-03T15:02:55.209Z,15.70
2023-05-03T15:05:23.383Z,15.70
2023-05-03T15:07:52.478Z,15.80
2023-05-03T15:10:20.993Z,15.80
2023-05-03T15:12:48.903Z,15.80
2023-05-03T15:15:17.135Z,15.90
2023-05-03T15:17:45.044Z,16.00
2023-05-03T15:20:14.641Z,16.10
2023-05-03T15:25:31.092Z,16.20
2023-05-03T15:28:01.239Z,16.30
2023-05-03T15:30:31.380Z,16.40
2023-05-03T15:32:59.301Z,16.40
2023-05-03T15:35:27.511Z,16.40
2023-05-03T15:37:55.472Z,16.60
2023-05-03T15:43:08.106Z,16.70
2023-05-03T15:45:36.562Z,16.70
2023-05-03T15:48:05.721Z,16.90
2023-05-03T15:50:34.307Z,16.90
2023-05-03T15:55:49.036Z,17.10
2023-05-03T15:58:18.504Z,17.60
2023-05-03T16:00:46.470Z,17.70
2023-05-03T16:08:49.475Z,17.70
2023-05-03T16:11:17.168Z,17.90
2023-05-03T16:13:45.106Z,17.80
2023-05-03T16:16:13.122Z,17.90
2023-05-03T16:18:41.180Z,17.80
2023-05-03T16:23:57.284Z,17.40
2023-05-03T16:26:25.408Z,17.50
2023-05-03T16:28:53.152Z,17.30
2023-05-03T16:31:20.948Z,17.50
2023-05-03T16:33:48.720Z,17.70
2023-05-03T16:36:18.004Z,18.10
2023-05-03T16:38:46.017Z,18.20
2023-05-03T16:41:13.998Z,18.30
2023-05-03T16:43:41.994Z,18.70
2023-05-03T16:46:09.779Z,19.00
2023-05-03T16:48:37.771Z,19.10
2023-05-03T16:51:06.136Z,19.00
2023-05-03T16:53:33.950Z,18.80
2023-05-03T16:56:01.869Z,18.60
2023-05-03T16:58:29.955Z,19.00
2023-05-03T17:00:57.813Z,19.10
2023-05-03T17:03:25.712Z,19.10
2023-05-03T17:05:53.611Z,19.10
2023-05-03T17:08:21.377Z,19.20
2023-05-03T17:10:49.297Z,19.10
2023-05-03T17:13:17.211Z,18.90
2023-05-03T17:15:45.186Z,19.10
2023-05-03T17:21:01.656Z,18.60
2023-05-03T17:23:29.433Z,19.30
2023-05-03T17:26:00.429Z,19.40
2023-05-03T17:28:28.392Z,19.60
2023-05-03T17:30:56.460Z,19.70
2023-05-03T17:33:25.302Z,19.80
2023-05-03T17:35:53.778Z,19.90
2023-05-03T17:38:21.965Z,20.20
2023-05-03T17:40:50.071Z,20.20
2023-05-03T17:43:18.139Z,20.40
2023-05-03T17:45:47.609Z,20.60
2023-05-03T17:48:16.001Z,21.00
2023-05-03T17:50:45.512Z,21.30
2023-05-03T17:53:13.358Z,21.90
2023-05-03T17:55:41.313Z,22.10
2023-05-03T17:58:10.184Z,22.20
2023-05-03T18:03:26.978Z,22.40
2023-05-03T18:08:42.104Z,22.20
2023-05-03T18:11:10.400Z,21.90
2023-05-03T18:13:39.704Z,21.40
2023-05-03T18:16:08.421Z,20.50
2023-05-03T18:18:36.689Z,19.90
2023-05-03T18:21:05.352Z,19.10
2023-05-03T18:23:34.524Z,18.50
2023-05-03T18:26:04.702Z,17.90
2023-05-03T18:28:32.572Z,17.60
2023-05-03T18:31:00.560Z,17.40
2023-05-03T18:33:28.470Z,17.20
2023-05-03T18:35:56.380Z,16.90
2023-05-03T18:38:24.244Z,16.90
2023-05-03T18:40:53.661Z,16.80
2023-05-03T18:43:21.641Z,16.60
2023-05-03T18:45:49.964Z,16.90
2023-05-03T18:48:18.091Z,17.10
2023-05-03T18:53:33.733Z,17.20
2023-05-03T18:56:02.411Z,16.60
2023-05-03T18:58:30.756Z,16.50
2023-05-03T19:00:59.551Z,16.30
2023-05-03T19:03:28.684Z,16.10
2023-05-03T19:05:59.550Z,16.00
2023-05-03T19:08:28.510Z,15.70
2023-05-03T19:10:57.066Z,15.60
2023-05-03T19:13:26.497Z,15.40
2023-05-03T19:15:54.495Z,15.40
2023-05-03T19:18:22.609Z,15.30
2023-05-03T19:20:51.483Z,15.30
2023-05-03T19:23:19.468Z,15.20
2023-05-03T19:25:47.342Z,15.10
2023-05-03T19:28:15.472Z,15.10
2023-05-03T19:33:30.784Z,14.90
2023-05-03T19:38:48.174Z,14.90
2023-05-03T19:41:16.725Z,15.00
2023-05-03T19:43:44.678Z,14.80
2023-05-03T19:46:12.636Z,14.70
2023-05-03T19:48:40.752Z,14.70
2023-05-03T19:54:02.827Z,14.70
2023-05-03T19:56:30.982Z,14.40
2023-05-03T19:58:58.990Z,14.60
2023-05-03T20:01:27.012Z,14.50
2023-05-03T20:03:55.900Z,14.40
2023-05-03T20:06:24.036Z,14.30
2023-05-03T20:08:52.098Z,14.30
2023-05-03T20:11:20.427Z,14.30
2023-05-03T20:13:48.401Z,14.30
2023-05-03T20:16:16.994Z,14.30
2023-05-03T20:18:46.906Z,14.30
2023-05-03T20:21:15.557Z,14.20
2023-05-03T20:23:43.608Z,14.20
2023-05-03T20:26:11.505Z,14.20
2023-05-03T20:28:39.560Z,14.10
2023-05-03T20:33:53.681Z,14.10
2023-05-03T20:36:21.632Z,13.90
2023-05-03T20:38:49.481Z,14.00
2023-05-03T20:41:18.261Z,13.80
2023-05-03T20:43:46.268Z,13.90
2023-05-03T20:46:14.320Z,13.70
2023-05-03T20:48:42.436Z,13.80
2023-05-03T20:51:10.254Z,13.90
2023-05-03T20:53:38.377Z,13.80
2023-05-03T20:56:07.218Z,13.70
2023-05-03T20:58:35.804Z,13.90
2023-05-03T21:01:04.828Z,13.70
2023-05-03T21:03:32.737Z,13.70
2023-05-03T21:06:01.158Z,13.40
2023-05-03T21:08:29.059Z,13.60
2023-05-03T21:10:56.918Z,13.60
2023-05-03T21:13:24.826Z,13.40
2023-05-03T21:15:52.617Z,13.40
2023-05-03T21:18:20.552Z,13.40
2023-05-03T21:20:48.340Z,13.40
2023-05-03T21:23:16.150Z,13.50
2023-05-03T21:25:43.981Z,13.30
2023-05-03T21:28:11.836Z,13.30
2023-05-03T21:30:41.559Z,13.20
2023-05-03T21:33:09.444Z,13.20
2023-05-03T21:35:37.460Z,13.10
2023-05-03T21:43:19.921Z,13.30
2023-05-03T21:45:48.367Z,13.30
2023-05-03T21:48:16.209Z,13.10
2023-05-03T21:50:45.367Z,13.00
2023-05-03T21:53:13.414Z,13.00
2023-05-03T21:55:41.308Z,13.00
2023-05-03T21:58:09.171Z,13.00
2023-05-03T22:00:39.388Z,12.70
2023-05-03T22:03:07.476Z,12.90
2023-05-03T22:05:37.119Z,12.90
2023-05-03T22:08:07.481Z,12.90
2023-05-03T22:10:36.525Z,12.80
2023-05-03T22:13:04.449Z,12.80
2023-05-03T22:15:32.821Z,12.80
2023-05-03T22:18:00.753Z,12.70
2023-05-03T22:20:29.815Z,12.80
2023-05-03T22:22:58.000Z,12.70
2023-05-03T22:27:54.620Z,12.60
2023-05-03T22:30:23.273Z,12.60
2023-05-03T22:32:51.253Z,12.80
2023-05-03T22:35:19.248Z,12.60
2023-05-03T22:37:47.056Z,12.90
2023-05-03T22:40:15.135Z,12.70
2023-05-03T22:42:43.118Z,12.60
2023-05-03T22:45:12.010Z,12.50
2023-05-03T22:47:40.064Z,12.50
2023-05-03T22:52:55.408Z,10.80
2023-05-03T22:55:23.318Z,12.40
2023-05-03T22:57:51.599Z,12.40
2023-05-03T23:00:21.040Z,12.30
2023-05-03T23:02:49.675Z,12.30
2023-05-03T23:05:17.654Z,12.30
2023-05-03T23:07:45.523Z,12.30
2023-05-03T23:10:13.366Z,12.20
2023-05-03T23:12:41.204Z,12.10
2023-05-03T23:15:11.120Z,12.20
2023-05-03T23:17:39.277Z,12.10
2023-05-03T23:20:10.064Z,12.30
2023-05-03T23:25:24.838Z,11.60
2023-05-03T23:27:52.558Z,12.00
2023-05-03T23:30:21.007Z,12.10
2023-05-03T23:32:49.942Z,12.00
2023-05-03T23:35:18.587Z,11.90
2023-05-03T23:37:46.311Z,11.90
2023-05-03T23:40:14.389Z,11.90
2023-05-03T23:42:42.754Z,11.90
2023-05-03T23:45:12.019Z,12.70
2023-05-03T23:47:39.756Z,11.80
2023-05-03T23:50:09.927Z,11.80
2023-05-03T23:52:37.977Z,11.70
2023-05-03T23:55:08.570Z,11.60
2023-05-03T23:57:36.354Z,11.50
